createdAt,value
2023-05-02T00:02:12.100Z,99846.94
2023-05-02T00:04:39.423Z,99860.03
2023-05-02T00:07:06.844Z,99874.03
2023-05-02T00:09:34.476Z,99861.72
2023-05-02T00:12:02.750Z,99860.13
2023-05-02T00:14:30.196Z,99853.13
2023-05-02T00:16:57.353Z,99861.91
2023-05-02T00:19:24.657Z,99870.69
2023-05-02T00:21:51.743Z,99871.81
2023-05-02T00:24:18.995Z,99862.06
2023-05-02T00:26:46.282Z,99870.81
2023-05-02T00:29:13.116Z,99876.00
2023-05-02T00:31:43.581Z,99868.66
2023-05-02T00:34:10.855Z,99877.97
2023-05-02T00:36:37.851Z,99884.03
2023-05-02T00:39:05.647Z,99875.03
2023-05-02T00:41:32.484Z,99885.72
2023-05-02T00:43:59.715Z,99851.56
2023-05-02T00:46:26.923Z,99869.84
2023-05-02T00:48:53.957Z,99873.69
2023-05-02T00:51:21.070Z,99872.91
2023-05-02T00:53:48.546Z,99868.81
2023-05-02T00:56:15.481Z,99871.63
2023-05-02T00:58:43.390Z,99846.50
2023-05-02T01:01:25.656Z,99874.94
2023-05-02T01:04:19.404Z,99864.00
2023-05-02T01:07:24.895Z,99877.72
2023-05-02T01:10:19.727Z,99871.72
2023-05-02T01:12:54.974Z,99876.94
2023-05-02T01:15:23.688Z,99864.63
2023-05-02T01:17:52.645Z,99858.63
2023-05-02T01:20:23.692Z,99872.28
2023-05-02T01:22:51.599Z,99868.22
2023-05-02T01:25:54.755Z,99870.66
2023-05-02T01:28:33.752Z,99869.03
2023-05-02T01:31:03.472Z,99866.56
2023-05-02T01:33:32.062Z,99867.13
2023-05-02T01:36:02.178Z,99863.84
2023-05-02T01:38:31.241Z,99866.28
2023-05-02T01:41:03.872Z,99863.56
2023-05-02T01:43:33.170Z,99871.22
2023-05-02T01:46:02.636Z,99875.06
2023-05-02T01:48:30.225Z,99869.88
2023-05-02T01:50:58.797Z,99873.97
2023-05-02T01:53:28.842Z,99868.50
2023-05-02T01:55:57.627Z,99872.31
2023-05-02T01:58:27.338Z,99871.25
2023-05-02T02:00:55.680Z,99880.00
2023-05-02T02:03:23.167Z,99881.66
2023-05-02T02:05:55.638Z,99869.66
2023-05-02T02:08:22.927Z,99871.59
2023-05-02T02:10:54.357Z,99872.69
2023-05-02T02:13:31.498Z,99878.97
2023-05-02T02:16:02.229Z,99875.97
2023-05-02T02:18:32.864Z,99877.06
2023-05-02T02:21:01.110Z,99882.25
2023-05-02T02:23:30.274Z,99887.16
2023-05-02T02:25:58.288Z,99861.47
2023-05-02T02:28:25.188Z,99872.41
2023-05-02T02:30:52.141Z,99884.16
2023-05-02T02:33:20.645Z,99886.06
2023-05-02T02:35:53.785Z,99883.59
2023-05-02T02:38:32.735Z,99892.63
2023-05-02T02:41:09.802Z,99886.63
2023-05-02T02:43:57.821Z,99888.78
2023-05-02T02:47:03.269Z,99855.44
2023-05-02T02:49:47.465Z,99890.97
2023-05-02T02:52:28.063Z,99894.25
2023-05-02T02:55:09.946Z,99896.44
2023-05-02T02:57:37.014Z,99895.59
2023-05-02T03:00:18.900Z,99897.50
2023-05-02T03:02:48.193Z,99900.50
2023-05-02T03:05:16.019Z,99894.75
2023-05-02T03:07:43.506Z,99889.56
2023-05-02T03:10:11.980Z,99889.00
2023-05-02T03:12:40.171Z,99906.22
2023-05-02T03:15:44.073Z,99913.06
2023-05-02T03:18:12.316Z,99907.56
2023-05-02T03:20:40.115Z,99901.84
2023-05-02T03:23:06.941Z,99895.84
2023-05-02T03:25:37.269Z,99910.59
2023-05-02T03:28:04.212Z,99913.88
2023-05-02T03:30:31.329Z,99905.13
2023-05-02T03:33:00.557Z,99908.47
2023-05-02T03:35:27.580Z,99916.09
2023-05-02T03:37:54.675Z,99906.25
2023-05-02T03:40:22.060Z,99919.34
2023-05-02T03:42:49.070Z,99922.66
2023-05-02T03:45:25.328Z,99922.63
2023-05-02T03:47:53.156Z,99930.56
2023-05-02T03:50:20.692Z,99939.59
2023-05-02T03:52:50.603Z,99943.72
2023-05-02T03:55:22.089Z,99929.50
2023-05-02T03:57:49.376Z,99938.56
2023-05-02T04:00:17.015Z,99935.00
2023-05-02T04:02:51.728Z,99939.94
2023-05-02T04:05:21.770Z,99928.19
2023-05-02T04:07:50.299Z,99941.00
2023-05-02T04:10:18.252Z,99933.34
2023-05-02T04:12:53.358Z,99954.38
2023-05-02T04:15:20.945Z,99945.06
2023-05-02T04:17:51.607Z,99937.94
2023-05-02T04:20:20.097Z,99950.22
2023-05-02T04:22:50.819Z,99952.66
2023-05-02T04:25:17.897Z,99949.03
2023-05-02T04:27:46.188Z,99946.25
2023-05-02T04:30:16.411Z,99950.03
2023-05-02T04:32:48.771Z,99929.50
2023-05-02T04:35:15.919Z,99941.75
2023-05-02T04:37:43.065Z,99945.78
2023-05-02T04:40:11.530Z,99942.69
2023-05-02T04:42:39.532Z,99941.78
2023-05-02T04:45:14.214Z,99947.16
2023-05-02T04:47:43.426Z,99949.78
2023-05-02T04:50:10.701Z,99941.44
2023-05-02T04:52:37.888Z,99940.53
2023-05-02T04:55:05.241Z,99946.38
2023-05-02T04:57:32.497Z,99942.97
2023-05-02T05:00:01.437Z,99943.84
2023-05-02T05:02:29.830Z,99940.13
2023-05-02T05:04:57.831Z,99957.53
2023-05-02T05:07:25.751Z,99952.41
2023-05-02T05:09:53.932Z,99955.41
2023-05-02T05:12:23.441Z,99960.78
2023-05-02T05:14:50.743Z,99968.91
2023-05-02T05:17:19.704Z,99958.38
2023-05-02T05:19:47.445Z,99948.88
2023-05-02T05:22:14.335Z,99966.59
2023-05-02T05:24:41.656Z,99957.94
2023-05-02T05:27:08.627Z,99963.94
2023-05-02T05:29:36.043Z,99963.16
2023-05-02T05:32:03.391Z,99961.13
2023-05-02T05:34:31.087Z,99981.97
2023-05-02T05:37:00.639Z,99978.13
2023-05-02T05:39:28.046Z,99967.50
2023-05-02T05:41:57.605Z,99963.03
2023-05-02T05:44:25.888Z,99972.78
2023-05-02T05:46:53.144Z,99967.47
2023-05-02T05:49:22.418Z,99982.16
2023-05-02T05:51:49.998Z,99972.91
2023-05-02T05:54:18.777Z,99981.50
2023-05-02T05:56:46.330Z,99986.47
2023-05-02T05:59:16.951Z,99980.44
2023-05-02T06:01:44.009Z,99977.56
2023-05-02T06:04:12.362Z,99975.69
2023-05-02T06:06:42.522Z,99977.53
2023-05-02T06:09:09.530Z,99968.31
2023-05-02T06:11:38.431Z,99983.50
2023-05-02T06:14:06.687Z,99983.38
2023-05-02T06:16:34.258Z,99980.47
2023-05-02T06:19:01.352Z,99981.13
2023-05-02T06:21:28.494Z,99975.50
2023-05-02T06:23:55.808Z,99970.44
2023-05-02T06:26:22.748Z,99973.16
2023-05-02T06:28:49.513Z,99977.38
2023-05-02T06:31:17.207Z,99960.69
2023-05-02T06:33:44.099Z,99962.75
2023-05-02T06:36:11.265Z,99971.78
2023-05-02T06:38:38.073Z,99967.97
2023-05-02T06:41:05.262Z,99966.72
2023-05-02T06:43:32.934Z,99968.91
2023-05-02T06:46:01.139Z,99963.88
2023-05-02T06:48:28.087Z,99963.97
2023-05-02T06:50:55.165Z,99967.56
2023-05-02T06:53:22.147Z,99973.53
2023-05-02T06:55:49.401Z,99971.41
2023-05-02T06:58:16.380Z,99965.84
2023-05-02T07:00:43.615Z,99967.63
2023-05-02T07:03:11.602Z,99963.59
2023-05-02T07:05:38.885Z,99959.09
2023-05-02T07:08:06.331Z,99948.34
2023-05-02T07:10:33.347Z,99952.78
2023-05-02T07:13:00.147Z,99955.44
2023-05-02T07:15:27.780Z,99963.19
2023-05-02T07:17:55.071Z,99958.09
2023-05-02T07:20:22.176Z,99961.78
2023-05-02T07:22:49.732Z,99954.81
2023-05-02T07:25:16.662Z,99960.84
2023-05-02T07:27:43.893Z,99954.06
2023-05-02T07:30:11.619Z,99963.06
2023-05-02T07:32:38.619Z,99951.88
2023-05-02T07:35:05.900Z,99960.63
2023-05-02T07:37:34.958Z,99957.44
2023-05-02T07:40:02.599Z,99956.00
2023-05-02T07:42:31.376Z,99965.47
2023-05-02T07:44:58.928Z,99960.78
2023-05-02T07:47:26.762Z,99964.25
2023-05-02T07:49:55.473Z,99962.09
2023-05-02T07:52:22.679Z,99972.31
2023-05-02T07:54:49.959Z,99954.53
2023-05-02T07:57:17.245Z,99966.59
2023-05-02T07:59:44.370Z,99958.41
2023-05-02T08:02:13.747Z,99959.75
2023-05-02T08:04:41.474Z,99970.38
2023-05-02T08:07:08.755Z,99958.41
2023-05-02T08:09:35.684Z,99962.72
2023-05-02T08:12:03.354Z,99948.31
2023-05-02T08:14:30.563Z,99951.19
2023-05-02T08:16:57.932Z,99961.50
2023-05-02T08:19:25.197Z,99964.44
2023-05-02T08:21:54.023Z,99959.56
2023-05-02T08:24:21.519Z,99960.56
2023-05-02T08:26:48.464Z,99965.41
2023-05-02T08:29:15.409Z,99958.44
2023-05-02T08:31:42.761Z,99960.09
2023-05-02T08:34:09.640Z,99956.75
2023-05-02T08:36:37.468Z,99953.47
2023-05-02T08:39:04.401Z,99955.59
2023-05-02T08:41:31.719Z,99947.81
2023-05-02T08:44:00.000Z,99955.75
2023-05-02T08:46:28.098Z,99953.38
2023-05-02T08:48:59.045Z,99955.66
2023-05-02T08:51:29.429Z,99959.28
2023-05-02T08:53:58.551Z,99950.47
2023-05-02T08:56:26.439Z,99958.75
2023-05-02T08:58:53.345Z,99943.50
2023-05-02T09:01:24.347Z,99939.06
2023-05-02T09:03:52.493Z,99950.56
2023-05-02T09:06:22.077Z,99953.00
2023-05-02T09:08:54.511Z,99943.94
2023-05-02T09:11:22.312Z,99934.53
2023-05-02T09:13:53.982Z,99936.00
2023-05-02T09:16:27.257Z,99927.88
2023-05-02T09:18:56.694Z,99945.41
2023-05-02T09:21:37.202Z,99921.53
2023-05-02T09:24:17.152Z,99936.63
2023-05-02T09:26:56.758Z,99931.47
2023-05-02T09:29:24.039Z,99936.75
2023-05-02T09:31:56.027Z,99923.03
2023-05-02T09:34:23.699Z,99925.84
2023-05-02T09:36:54.627Z,99931.03
2023-05-02T09:39:26.577Z,99930.31
2023-05-02T09:41:54.207Z,99928.41
2023-05-02T09:44:24.811Z,99930.66
2023-05-02T09:46:56.376Z,99912.56
2023-05-02T09:49:52.752Z,99915.78
2023-05-02T09:52:24.202Z,99906.63
2023-05-02T09:54:52.336Z,99915.53
2023-05-02T09:57:19.889Z,99908.53
2023-05-02T09:59:57.127Z,99911.31
2023-05-02T10:02:26.058Z,99903.03
2023-05-02T10:04:56.972Z,99902.66
2023-05-02T10:07:25.026Z,99908.31
2023-05-02T10:09:58.313Z,99897.50
2023-05-02T10:12:28.460Z,99890.84
2023-05-02T10:15:05.871Z,99898.38
2023-05-02T10:17:39.456Z,99905.34
2023-05-02T10:20:08.078Z,99882.25
2023-05-02T10:22:36.992Z,99896.94
2023-05-02T10:25:04.815Z,99888.97
2023-05-02T10:27:33.071Z,99890.75
2023-05-02T10:30:01.129Z,99902.81
2023-05-02T10:32:29.770Z,99897.84
2023-05-02T10:35:04.687Z,99898.06
2023-05-02T10:37:36.640Z,99895.16
2023-05-02T10:40:04.405Z,99882.31
2023-05-02T10:42:35.219Z,99882.44
2023-05-02T10:45:02.569Z,99893.16
2023-05-02T10:47:30.434Z,99896.59
2023-05-02T10:50:00.515Z,99895.88
2023-05-02T10:52:35.662Z,99894.31
2023-05-02T10:55:20.470Z,99887.09
2023-05-02T10:58:02.400Z,99885.59
2023-05-02T11:00:32.505Z,99895.94
2023-05-02T11:03:00.425Z,99879.41
2023-05-02T11:05:28.663Z,99887.47
2023-05-02T11:08:27.604Z,99894.72
2023-05-02T11:10:54.644Z,99880.56
2023-05-02T11:13:49.391Z,99886.59
2023-05-02T11:16:16.566Z,99885.19
2023-05-02T11:19:12.585Z,99884.00
2023-05-02T11:21:40.398Z,99884.56
2023-05-02T11:24:47.752Z,99879.28
2023-05-02T11:27:33.712Z,99878.19
2023-05-02T11:30:02.094Z,99871.78
2023-05-02T11:32:48.576Z,99877.00
2023-05-02T11:35:23.759Z,99875.06
2023-05-02T11:37:58.058Z,99882.19
2023-05-02T11:40:27.159Z,99874.75
2023-05-02T11:42:54.890Z,99877.50
2023-05-02T11:45:23.957Z,99861.94
2023-05-02T11:47:51.738Z,99861.75
2023-05-02T11:50:18.868Z,99863.53
2023-05-02T11:52:46.390Z,99865.69
2023-05-02T11:55:15.200Z,99854.09
2023-05-02T11:57:43.152Z,99844.06
2023-05-02T12:00:13.422Z,99857.84
2023-05-02T12:02:42.037Z,99844.72
2023-05-02T12:05:13.618Z,99841.41
2023-05-02T12:07:49.454Z,99845.94
2023-05-02T12:10:16.398Z,99834.59
2023-05-02T12:12:44.693Z,99837.03
2023-05-02T12:15:12.873Z,99840.94
2023-05-02T12:17:48.997Z,99833.19
2023-05-02T12:20:17.163Z,99831.25
2023-05-02T12:22:44.536Z,99820.84
2023-05-02T12:25:11.505Z,99834.44
2023-05-02T12:27:38.694Z,99827.13
2023-05-02T12:30:06.167Z,99822.72
2023-05-02T12:32:35.289Z,99817.09
2023-05-02T12:35:04.111Z,99818.44
2023-05-02T12:37:31.211Z,99815.91
2023-05-02T12:39:58.368Z,99808.84
2023-05-02T12:42:26.111Z,99803.47
2023-05-02T12:44:53.364Z,99813.66
2023-05-02T12:47:22.963Z,99799.34
2023-05-02T12:49:54.034Z,99799.28
2023-05-02T12:52:22.776Z,99801.63
2023-05-02T12:54:49.672Z,99796.72
2023-05-02T12:57:26.626Z,99804.91
2023-05-02T12:59:56.857Z,99792.53
2023-05-02T13:02:24.046Z,99792.53
2023-05-02T13:04:51.484Z,99796.50
2023-05-02T13:07:18.444Z,99796.88
2023-05-02T13:09:45.383Z,99798.03
2023-05-02T13:12:12.735Z,99779.94
2023-05-02T13:17:22.003Z,99788.22
2023-05-02T13:20:00.343Z,99790.81
2023-05-02T13:22:31.732Z,99784.78
2023-05-02T13:24:58.939Z,99777.97
2023-05-02T13:27:26.137Z,99785.28
2023-05-02T13:29:53.107Z,99780.00
2023-05-02T13:32:20.036Z,99780.50
2023-05-02T13:34:47.073Z,99780.53
2023-05-02T13:37:14.194Z,99776.59
2023-05-02T13:39:41.243Z,99781.44
2023-05-02T13:42:08.136Z,99778.16
2023-05-02T13:44:35.130Z,99771.69
2023-05-02T13:47:02.167Z,99766.59
2023-05-02T13:49:29.187Z,99768.53
2023-05-02T13:51:56.334Z,99759.78
2023-05-02T13:54:23.336Z,99751.84
2023-05-02T13:56:50.222Z,99751.78
2023-05-02T13:59:17.115Z,99752.50
2023-05-02T14:01:44.149Z,99737.28
2023-05-02T14:04:11.476Z,99753.16
2023-05-02T14:06:38.919Z,99749.56
2023-05-02T14:09:07.445Z,99727.47
2023-05-02T14:11:34.288Z,99738.31
2023-05-02T14:14:01.155Z,99744.78
2023-05-02T14:16:28.315Z,99742.84
2023-05-02T14:18:55.277Z,99745.75
2023-05-02T14:21:22.105Z,99741.88
2023-05-02T14:23:49.034Z,99755.50
2023-05-02T14:26:16.168Z,99748.38
2023-05-02T14:28:45.688Z,99746.38
2023-05-02T14:31:12.849Z,99752.94
2023-05-02T14:33:40.053Z,99753.69
2023-05-02T14:36:07.436Z,99750.25
2023-05-02T14:38:34.317Z,99753.34
2023-05-02T14:41:03.050Z,99753.25
2023-05-02T14:43:29.901Z,99765.06
2023-05-02T14:45:57.788Z,99761.94
2023-05-02T14:48:24.992Z,99761.09
2023-05-02T14:50:51.901Z,99771.44
2023-05-02T14:53:20.081Z,99773.28
2023-05-02T14:55:47.123Z,99768.38
2023-05-02T14:58:20.414Z,99770.84
2023-05-02T15:00:47.592Z,99769.94
2023-05-02T15:03:14.927Z,99775.13
2023-05-02T15:05:41.960Z,99777.91
2023-05-02T15:08:09.099Z,99772.31
2023-05-02T15:10:39.886Z,99790.75
2023-05-02T15:13:26.539Z,99773.13
2023-05-02T15:15:57.068Z,99790.81
2023-05-02T15:18:24.065Z,99784.53
2023-05-02T15:20:50.990Z,99790.25
2023-05-02T15:23:18.285Z,99791.75
2023-05-02T15:25:45.335Z,99782.75
2023-05-02T15:28:12.265Z,99790.31
2023-05-02T15:30:39.682Z,99776.09
2023-05-02T15:33:06.756Z,99786.28
2023-05-02T15:35:33.758Z,99773.31
2023-05-02T15:38:00.716Z,99776.97
2023-05-02T15:40:28.767Z,99767.91
2023-05-02T15:42:55.695Z,99780.03
2023-05-02T15:45:22.836Z,99771.94
2023-05-02T15:47:51.079Z,99763.50
2023-05-02T15:50:18.058Z,99770.38
2023-05-02T15:52:44.845Z,99773.31
2023-05-02T15:55:12.078Z,99776.53
2023-05-02T15:57:38.863Z,99758.63
2023-05-02T16:00:06.786Z,99781.94
2023-05-02T16:02:34.245Z,99771.16
2023-05-02T16:05:02.011Z,99763.28
2023-05-02T16:07:28.805Z,99777.09
2023-05-02T16:09:56.249Z,99778.69
2023-05-02T16:12:23.204Z,99778.16
2023-05-02T16:14:50.707Z,99786.38
2023-05-02T16:17:17.737Z,99776.88
2023-05-02T16:19:44.577Z,99775.69
2023-05-02T16:22:11.606Z,99770.78
2023-05-02T16:24:38.758Z,99777.03
2023-05-02T16:27:05.586Z,99775.13
2023-05-02T16:29:32.743Z,99766.38
2023-05-02T16:31:59.892Z,99779.41
2023-05-02T16:34:27.196Z,99774.84
2023-05-02T16:36:54.050Z,99791.75
2023-05-02T16:39:21.083Z,99794.03
2023-05-02T16:41:49.481Z,99795.31
2023-05-02T16:44:20.564Z,99797.22
2023-05-02T16:46:47.765Z,99803.44
2023-05-02T16:49:14.809Z,99802.72
2023-05-02T16:51:41.916Z,99810.28
2023-05-02T16:54:09.046Z,99816.84
2023-05-02T16:56:35.823Z,99811.03
2023-05-02T16:59:02.938Z,99796.91
2023-05-02T17:01:35.112Z,99820.31
2023-05-02T17:04:02.148Z,99819.03
2023-05-02T17:06:29.246Z,99806.78
2023-05-02T17:08:56.498Z,99829.00
2023-05-02T17:11:25.507Z,99831.84
2023-05-02T17:13:52.722Z,99825.16
2023-05-02T17:16:23.024Z,99831.97
2023-05-02T17:18:53.112Z,99833.16
2023-05-02T17:21:21.140Z,99828.81
2023-05-02T17:23:48.452Z,99828.81
2023-05-02T17:26:16.705Z,99830.09
2023-05-02T17:28:44.312Z,99836.97
2023-05-02T17:31:12.268Z,99836.75
2023-05-02T17:33:39.297Z,99826.59
2023-05-02T17:36:06.921Z,99828.81
2023-05-02T17:38:33.932Z,99827.44
2023-05-02T17:41:01.070Z,99823.59
2023-05-02T17:43:28.185Z,99837.84
2023-05-02T17:45:55.048Z,99838.19
2023-05-02T17:48:29.584Z,99839.59
2023-05-02T17:50:56.575Z,99824.03
2023-05-02T17:53:23.807Z,99844.22
2023-05-02T17:55:51.280Z,99839.56
2023-05-02T17:58:18.892Z,99845.59
2023-05-02T18:00:45.741Z,99846.63
2023-05-02T18:03:13.454Z,99839.09
2023-05-02T18:05:41.061Z,99847.78
2023-05-02T18:08:08.369Z,99855.16
2023-05-02T18:10:39.244Z,99852.00
2023-05-02T18:13:06.510Z,99841.31
2023-05-02T18:15:33.288Z,99853.19
2023-05-02T18:18:00.317Z,99861.38
2023-05-02T18:20:27.477Z,99855.44
2023-05-02T18:22:57.577Z,99847.88
2023-05-02T18:25:25.143Z,99872.19
2023-05-02T18:28:16.325Z,99869.28
2023-05-02T18:30:43.157Z,99859.41
2023-05-02T18:33:10.132Z,99858.66
2023-05-02T18:35:36.983Z,99865.69
2023-05-02T18:38:07.183Z,99859.06
2023-05-02T18:40:34.115Z,99886.81
2023-05-02T18:43:01.221Z,99873.84
2023-05-02T18:45:28.583Z,99894.91
2023-05-02T18:47:55.622Z,99891.03
2023-05-02T18:50:22.617Z,99885.41
2023-05-02T18:52:49.712Z,99895.00
2023-05-02T18:55:16.830Z,99894.66
2023-05-02T18:57:44.584Z,99901.84
2023-05-02T19:00:12.556Z,99898.28
2023-05-02T19:02:40.353Z,99908.13
2023-05-02T19:05:08.268Z,99905.69
2023-05-02T19:07:38.188Z,99902.66
2023-05-02T19:10:05.844Z,99914.41
2023-05-02T19:12:33.211Z,99897.00
2023-05-02T19:15:00.841Z,99909.56
2023-05-02T19:17:27.973Z,99904.69
2023-05-02T19:19:56.208Z,99901.28
2023-05-02T19:22:24.566Z,99913.34
2023-05-02T19:24:51.543Z,99919.06
2023-05-02T19:27:18.543Z,99929.31
2023-05-02T19:30:18.326Z,99923.66
2023-05-02T19:33:00.282Z,99925.13
2023-05-02T19:35:30.837Z,99919.63
2023-05-02T19:37:58.212Z,99931.50
2023-05-02T19:40:25.254Z,99933.78
2023-05-02T19:42:55.451Z,99935.91
2023-05-02T19:45:22.421Z,99938.69
2023-05-02T19:47:49.285Z,99931.47
2023-05-02T19:50:41.348Z,99933.41
2023-05-02T19:53:08.672Z,99923.63
2023-05-02T19:55:35.425Z,99922.69
2023-05-02T19:58:04.497Z,99921.88
2023-05-02T20:00:31.376Z,99925.25
2023-05-02T20:02:58.578Z,99926.72
2023-05-02T20:05:25.647Z,99919.69
2023-05-02T20:07:52.431Z,99929.28
2023-05-02T20:10:19.341Z,99929.72
2023-05-02T20:12:47.061Z,99933.28
2023-05-02T20:15:16.309Z,99930.97
2023-05-02T20:17:43.334Z,99922.00
2023-05-02T20:20:11.715Z,99926.72
2023-05-02T20:22:41.999Z,99925.56
2023-05-02T20:25:11.936Z,99918.09
2023-05-02T20:27:39.132Z,99908.84
2023-05-02T20:30:07.779Z,99909.78
2023-05-02T20:32:34.791Z,99907.38
2023-05-02T20:35:01.925Z,99896.34
2023-05-02T20:37:29.672Z,99902.91
2023-05-02T20:39:56.716Z,99908.25
2023-05-02T20:42:26.970Z,99905.31
2023-05-02T20:44:58.473Z,99906.81
2023-05-02T20:47:29.595Z,99912.13
2023-05-02T20:49:57.180Z,99908.50
2023-05-02T20:52:24.132Z,99910.28
2023-05-02T20:54:54.782Z,99892.09
2023-05-02T20:57:22.354Z,99916.91
2023-05-02T20:59:49.193Z,99905.84
2023-05-02T21:02:16.200Z,99908.75
2023-05-02T21:04:43.613Z,99898.72
2023-05-02T21:07:11.452Z,99902.78
2023-05-02T21:09:38.359Z,99916.47
2023-05-02T21:12:06.358Z,99913.16
2023-05-02T21:14:34.737Z,99912.28
2023-05-02T21:17:01.665Z,99899.06
2023-05-02T21:19:28.764Z,99908.78
2023-05-02T21:21:55.831Z,99921.06
2023-05-02T21:24:22.851Z,99909.22
2023-05-02T21:26:49.919Z,99922.38
2023-05-02T21:29:16.924Z,99914.53
2023-05-02T21:31:45.449Z,99921.66
2023-05-02T21:34:12.557Z,99915.84
2023-05-02T21:36:39.383Z,99894.00
2023-05-02T21:39:06.472Z,99907.41
2023-05-02T21:41:33.403Z,99908.53
2023-05-02T21:44:00.335Z,99901.41
2023-05-02T21:46:27.625Z,99904.16
2023-05-02T21:48:54.486Z,99906.53
2023-05-02T21:51:21.652Z,99913.81
2023-05-02T21:53:51.651Z,99902.31
2023-05-02T21:56:19.322Z,99911.91
2023-05-02T21:58:47.868Z,99910.25
2023-05-02T22:01:15.944Z,99906.81
2023-05-02T22:03:43.141Z,99902.53
2023-05-02T22:06:10.254Z,99906.47
2023-05-02T22:08:37.183Z,99916.69
2023-05-02T22:11:09.669Z,99910.53
2023-05-02T22:13:37.251Z,99895.03
2023-05-02T22:16:04.445Z,99916.34
2023-05-02T22:18:31.472Z,99923.00
2023-05-02T22:20:58.663Z,99906.97
2023-05-02T22:23:25.783Z,99909.00
2023-05-02T22:25:52.947Z,99912.78
2023-05-02T22:28:20.007Z,99916.06
2023-05-02T22:30:46.945Z,99923.31
2023-05-02T22:33:14.253Z,99915.22
2023-05-02T22:35:41.544Z,99914.50
2023-05-02T22:38:11.393Z,99917.59
2023-05-02T22:40:38.301Z,99914.72
2023-05-02T22:43:05.105Z,99893.28
2023-05-02T22:45:31.943Z,99894.31
2023-05-02T22:47:58.835Z,99909.91
2023-05-02T22:50:26.429Z,99912.22
2023-05-02T22:52:57.358Z,99918.66
2023-05-02T22:55:24.367Z,99908.41
2023-05-02T22:57:51.600Z,99898.59
2023-05-02T23:00:18.574Z,99898.69
2023-05-02T23:02:46.030Z,99908.78
2023-05-02T23:05:12.871Z,99903.28
2023-05-02T23:07:40.386Z,99898.69
2023-05-02T23:10:08.144Z,99893.66
2023-05-02T23:12:34.921Z,99881.44
2023-05-02T23:15:01.813Z,99869.78
2023-05-02T23:17:28.723Z,99890.97
2023-05-02T23:20:01.501Z,99878.84
2023-05-02T23:22:29.913Z,99882.94
2023-05-02T23:24:56.951Z,99879.50
2023-05-02T23:27:23.871Z,99894.66
2023-05-02T23:29:50.729Z,99887.00
2023-05-02T23:32:18.991Z,99907.41
2023-05-02T23:34:46.223Z,99901.09
2023-05-02T23:37:14.362Z,99894.00
2023-05-02T23:39:41.411Z,99896.88
2023-05-02T23:42:08.288Z,99891.72
2023-05-02T23:44:35.462Z,99908.31
2023-05-02T23:47:02.429Z,99897.97
2023-05-02T23:49:29.254Z,99895.00
2023-05-02T23:51:56.348Z,99891.78
2023-05-02T23:54:23.229Z,99887.44
2023-05-02T23:56:50.472Z,99893.13
2023-05-02T23:59:17.376Z,99893.66
